Time;durP1;ratioP1;P1;durP2;ratioP2;P2;SDS_P1;SDS_P2;PMS_P1;PMS_P2;Temp;Humidity;BMP_temperature;BMP_pressure;BME280_temperature;BME280_humidity;BME280_pressure;Samples;Min_cycle;Max_cycle;Signal;HPM_P1;HPM_P2
2022/09/21 00:02:11;;;;;;;0.40;0.40;;;;;;;8.23;58.95;101425.00;5065475;28;20029;-70
2022/09/21 00:04:36;;;;;;;0.40;0.40;;;;;;;8.27;59.21;101426.81;5065735;28;20025;-70
2022/09/21 00:07:02;;;;;;;0.40;0.40;;;;;;;8.29;59.36;101430.31;5065514;28;20082;-70
2022/09/21 00:09:27;;;;;;;0.40;0.40;;;;;;;8.33;59.36;101433.78;5065357;28;20044;-70
2022/09/21 00:11:53;;;;;;;0.40;0.40;;;;;;;8.32;59.09;101432.94;5064032;28;20017;-69
2022/09/21 00:14:18;;;;;;;0.40;0.40;;;;;;;8.30;59.02;101432.03;5065454;28;20058;-70
2022/09/21 00:16:44;;;;;;;0.40;0.40;;;;;;;8.29;58.86;101423.41;5065106;28;20032;-70
2022/09/21 00:19:09;;;;;;;0.40;0.40;;;;;;;8.28;58.96;101423.38;5065362;28;20032;-69
2022/09/21 00:21:37;;;;;;;0.50;0.50;;;;;;;8.26;58.90;101425.94;5065023;28;20045;-70
2022/09/21 00:24:03;;;;;;;0.40;0.40;;;;;;;8.27;59.22;101426.81;5064820;28;20021;-70
2022/09/21 00:26:28;;;;;;;0.60;0.60;;;;;;;8.26;59.53;101433.69;5065170;28;20021;-70
2022/09/21 00:28:56;;;;;;;0.50;0.50;;;;;;;8.26;60.08;101423.34;5065320;28;20059;-71
2022/09/21 00:31:22;;;;;;;0.40;0.40;;;;;;;8.29;59.72;101425.97;5064701;28;20017;-70
2022/09/21 00:33:48;;;;;;;0.40;0.40;;;;;;;8.30;60.70;101424.28;5064785;28;20059;-70
2022/09/21 00:36:18;;;;;;;0.40;0.40;;;;;;;8.32;59.87;101425.19;5065045;28;20116;-71
2022/09/21 00:38:45;;;;;;;0.40;0.40;;;;;;;8.29;59.38;101425.97;5064704;28;20044;-71
2022/09/21 00:41:11;;;;;;;0.40;0.40;;;;;;;8.33;59.19;101429.50;5064844;28;20171;-70
2022/09/21 00:43:43;;;;;;;0.40;0.40;;;;;;;8.32;59.16;101427.78;5064753;28;20060;-71
2022/09/21 00:46:21;;;;;;;0.50;0.50;;;;;;;8.35;59.10;101435.59;5064945;28;20033;-69
2022/09/21 00:48:47;;;;;;;0.40;0.40;;;;;;;8.36;59.05;101419.19;5065023;28;20025;-70
2022/09/21 00:51:12;;;;;;;0.40;0.40;;;;;;;8.39;58.92;101424.44;5064698;28;20279;-71
2022/09/21 00:53:38;;;;;;;0.40;0.40;;;;;;;8.41;58.96;101429.63;5064784;28;20271;-71
2022/09/21 00:56:05;;;;;;;0.40;0.40;;;;;;;8.41;58.83;101425.34;5064890;28;20032;-71
2022/09/21 00:58:37;;;;;;;0.40;0.40;;;;;;;8.42;58.91;101431.38;5064831;28;20025;-70
2022/09/21 01:01:02;;;;;;;0.50;0.50;;;;;;;8.41;59.46;101424.47;5064639;28;20039;-70
2022/09/21 01:03:30;;;;;;;0.40;0.40;;;;;;;8.41;59.56;101425.34;5064756;28;20517;-70
2022/09/21 01:05:55;;;;;;;0.40;0.40;;;;;;;8.53;59.17;101429.84;5064675;28;20036;-71
2022/09/21 01:08:23;;;;;;;0.40;0.40;;;;;;;8.57;59.13;101427.31;5046602;28;20029;-71
2022/09/21 01:11:07;;;;;;;0.40;0.40;;;;;;;8.60;59.73;101430.84;5064648;28;20055;-70
2022/09/21 01:14:06;;;;;;;0.40;0.40;;;;;;;8.64;59.24;101432.63;5064368;28;20515;-70
2022/09/21 01:16:39;;;;;;;0.40;0.40;;;;;;;8.65;58.96;101434.38;5040517;28;20037;-71
2022/09/21 01:19:27;;;;;;;0.40;0.40;;;;;;;8.64;58.86;101432.63;5064453;28;20028;-71
2022/09/21 01:22:14;;;;;;;0.40;0.40;;;;;;;8.61;58.66;101432.56;5064317;28;20100;-71
2022/09/21 01:25:16;;;;;;;0.40;0.40;;;;;;;8.59;58.83;101434.28;5064049;28;20021;-70
2022/09/21 01:27:58;;;;;;;0.40;0.40;;;;;;;8.57;58.76;101435.97;5064665;28;20028;-70
2022/09/21 01:30:24;;;;;;;0.40;0.40;;;;;;;8.59;58.92;101436.00;5064643;28;20036;-70
2022/09/21 01:33:01;;;;;;;0.40;0.40;;;;;;;8.62;59.12;101439.53;5064442;28;20025;-70
2022/09/21 01:35:32;;;;;;;0.40;0.40;;;;;;;8.63;58.89;101436.06;5067041;28;20474;-70
2022/09/21 01:38:12;;;;;;;0.40;0.40;;;;;;;8.65;58.84;101442.16;5067732;28;20084;-71
2022/09/21 01:40:41;;;;;;;0.40;0.40;;;;;;;8.66;58.97;101438.72;5068397;28;20033;-73
2022/09/21 01:43:10;;;;;;;0.40;0.40;;;;;;;8.66;59.01;101436.13;5068093;28;20021;-72
2022/09/21 01:45:43;;;;;;;0.40;0.40;;;;;;;8.65;58.93;101436.97;5068306;28;20488;-72
2022/09/21 01:48:10;;;;;;;0.50;0.50;;;;;;;8.65;59.23;101434.38;5068441;28;20063;-72
2022/09/21 01:50:40;;;;;;;0.40;0.40;;;;;;;8.64;59.40;101440.38;5068061;28;20021;-70
2022/09/21 01:53:19;;;;;;;0.40;0.40;;;;;;;8.64;59.56;101431.78;5067687;28;20044;-70
2022/09/21 01:55:50;;;;;;;0.40;0.40;;;;;;;8.65;59.54;101433.50;5067901;28;20052;-71
2022/09/21 01:58:28;;;;;;;0.40;0.40;;;;;;;8.64;59.73;101435.22;5067876;28;20023;-70
2022/09/21 02:00:56;;;;;;;0.40;0.40;;;;;;;8.68;59.89;101438.72;5067515;28;20021;-70
2022/09/21 02:03:42;;;;;;;0.40;0.40;;;;;;;8.69;59.97;101427.53;5067385;28;20243;-72
2022/09/21 02:06:08;;;;;;;0.40;0.40;;;;;;;8.61;60.04;101421.38;5067562;28;20112;-70
2022/09/21 02:08:35;;;;;;;0.40;0.40;;;;;;;8.72;60.10;101429.31;5067499;28;20056;-70
2022/09/21 02:11:01;;;;;;;0.40;0.40;;;;;;;8.71;59.91;101432.72;5067529;28;20091;-70
2022/09/21 02:13:32;;;;;;;0.40;0.40;;;;;;;8.76;59.91;101434.56;5067325;28;20025;-70
2022/09/21 02:16:03;;;;;;;0.40;0.40;;;;;;;8.79;59.99;101441.50;5067296;28;20021;-70
2022/09/21 02:18:47;;;;;;;0.50;0.50;;;;;;;8.80;59.85;101433.75;5067268;28;20017;-70
2022/09/21 02:21:22;;;;;;;0.40;0.40;;;;;;;8.82;59.81;101430.31;5066416;28;20076;-70
2022/09/21 02:24:07;;;;;;;0.50;0.50;;;;;;;8.78;59.67;101425.09;5066849;28;20039;-70
2022/09/21 02:26:39;;;;;;;0.40;0.40;;;;;;;8.85;59.81;101441.59;5067111;28;20416;-70
2022/09/21 02:29:24;;;;;;;0.50;0.50;;;;;;;8.87;59.73;101432.13;5067215;28;20025;-71
2022/09/21 02:31:56;;;;;;;0.40;0.40;;;;;;;8.89;59.71;101432.16;5067030;28;20021;-70
2022/09/21 02:34:33;;;;;;;0.50;0.50;;;;;;;8.89;59.49;101433.03;5066825;28;20029;-70
2022/09/21 02:37:25;;;;;;;0.50;0.50;;;;;;;8.86;59.43;101440.75;5066749;28;20045;-70
2022/09/21 02:40:27;;;;;;;0.50;0.50;;;;;;;8.85;59.63;101430.38;5066598;28;20040;-70
2022/09/21 02:42:58;;;;;;;0.40;0.40;;;;;;;8.86;59.72;101433.00;5004899;28;20038;-70
2022/09/21 02:45:31;;;;;;;0.40;0.40;;;;;;;8.88;59.76;101433.84;5004623;28;20537;-70
2022/09/21 02:48:08;;;;;;;0.40;0.40;;;;;;;8.90;59.80;101439.94;5004923;28;20458;-70
2022/09/21 02:50:55;;;;;;;0.80;0.80;;;;;;;8.92;59.98;101437.38;5004923;28;20026;-70
2022/09/21 02:53:28;;;;;;;0.40;0.40;;;;;;;8.92;59.95;101438.25;5004860;28;20039;-70
2022/09/21 02:55:56;;;;;;;0.40;0.40;;;;;;;8.95;59.98;101436.53;5005255;28;20026;-70
2022/09/21 02:58:25;;;;;;;0.40;0.40;;;;;;;8.96;60.08;101430.53;5005037;28;20037;-70
2022/09/21 03:00:51;;;;;;;0.40;0.40;;;;;;;9.02;60.21;101434.09;5004547;28;20062;-70
2022/09/21 03:03:22;;;;;;;0.50;0.50;;;;;;;9.08;60.21;101443.66;5004853;28;20026;-70
2022/09/21 03:05:49;;;;;;;0.40;0.40;;;;;;;9.08;59.96;101437.59;5005917;28;20074;-71
2022/09/21 03:08:16;;;;;;;0.40;0.40;;;;;;;9.07;59.96;101439.34;5007017;28;20034;-70
2022/09/21 03:10:41;;;;;;;0.40;0.40;;;;;;;9.05;60.19;101434.13;5004544;28;20034;-70
2022/09/21 03:13:10;;;;;;;0.40;0.40;;;;;;;9.04;60.45;101434.13;5004192;28;20038;-70
2022/09/21 03:15:36;;;;;;;0.40;0.40;;;;;;;9.14;60.68;101440.28;5004452;28;20033;-70
2022/09/21 03:18:08;;;;;;;0.40;0.40;;;;;;;9.16;60.68;101430.81;5004280;28;20382;-71
2022/09/21 03:20:34;;;;;;;0.40;0.40;;;;;;;9.30;60.58;101439.66;5066321;28;20028;-71
2022/09/21 03:22:59;;;;;;;0.40;0.40;;;;;;;9.40;60.36;101442.34;5066013;28;20024;-71
2022/09/21 03:25:26;;;;;;;0.40;0.40;;;;;;;9.49;60.08;101433.84;5066083;28;20017;-71
2022/09/21 03:27:52;;;;;;;0.40;0.40;;;;;;;9.54;59.82;101432.16;5065656;28;20060;-71
2022/09/21 03:30:19;;;;;;;0.40;0.40;;;;;;;9.61;59.81;101441.78;5064530;28;20021;-70
2022/09/21 03:32:47;;;;;;;0.40;0.40;;;;;;;9.68;59.70;101445.28;5065718;28;20024;-71
2022/09/21 03:35:13;;;;;;;0.40;0.40;;;;;;;9.73;59.78;101447.97;5065731;28;20131;-71
2022/09/21 03:37:38;;;;;;;0.40;0.40;;;;;;;9.78;59.65;101447.16;5065556;28;20164;-71
2022/09/21 03:40:04;;;;;;;0.40;0.40;;;;;;;9.74;59.41;101431.53;5065231;28;20449;-71
2022/09/21 03:42:29;;;;;;;0.40;0.40;;;;;;;9.86;59.27;101446.34;5065445;28;20107;-70
2022/09/21 03:44:55;;;;;;;0.40;0.40;;;;;;;9.86;59.18;101444.63;5065628;28;20106;-71
2022/09/21 03:47:21;;;;;;;0.40;0.40;;;;;;;9.85;59.03;101448.09;5065416;28;20029;-71
2022/09/21 03:49:46;;;;;;;0.40;0.40;;;;;;;9.85;58.95;101452.41;5065423;28;20032;-70
2022/09/21 03:52:11;;;;;;;0.40;0.40;;;;;;;9.82;59.01;101447.19;5065711;28;20025;-71
2022/09/21 03:54:37;;;;;;;0.40;0.40;;;;;;;9.78;58.97;101447.16;5065358;28;20078;-71
2022/09/21 03:57:02;;;;;;;0.30;0.30;;;;;;;9.76;58.75;101456.63;5064989;28;20047;-71
2022/09/21 03:59:28;;;;;;;0.40;0.40;;;;;;;9.74;58.98;101457.47;5063900;28;20106;-71
2022/09/21 04:01:53;;;;;;;0.40;0.40;;;;;;;9.66;58.78;101453.03;5064938;28;20124;-71
2022/09/21 04:04:19;;;;;;;0.40;0.40;;;;;;;9.57;58.70;101452.09;5065209;28;20029;-71
2022/09/21 04:06:45;;;;;;;0.40;0.40;;;;;;;9.42;58.48;101454.47;5065198;28;20025;-71
2022/09/21 04:09:10;;;;;;;0.40;0.40;;;;;;;9.29;58.57;101448.28;5065017;28;20515;-71
2022/09/21 04:11:37;;;;;;;0.40;0.40;;;;;;;9.15;58.51;101450.66;5065154;28;20056;-71
2022/09/21 04:14:04;;;;;;;0.40;0.40;;;;;;;9.04;58.76;101444.47;5064787;28;20043;-71
2022/09/21 04:16:30;;;;;;;0.40;0.40;;;;;;;8.93;58.87;101449.47;5064836;28;20415;-71
2022/09/21 04:18:55;;;;;;;0.40;0.40;;;;;;;8.89;58.85;101455.47;5065096;28;20044;-71
2022/09/21 04:21:21;;;;;;;0.40;0.40;;;;;;;8.79;58.78;101451.84;5065038;28;20091;-71
2022/09/21 04:23:48;;;;;;;0.30;0.30;;;;;;;8.71;58.80;101456.91;5065252;28;20045;-71
2022/09/21 04:26:29;;;;;;;0.40;0.40;;;;;;;8.59;58.81;101454.13;5065045;28;20469;-71
2022/09/21 04:28:55;;;;;;;0.40;0.40;;;;;;;8.47;58.83;101455.63;5064962;28;20035;-73
2022/09/21 04:31:22;;;;;;;0.40;0.40;;;;;;;8.38;58.70;101439.94;5064658;28;20025;-72
2022/09/21 04:33:52;;;;;;;0.40;0.40;;;;;;;8.33;58.92;101447.63;5064723;28;20048;-71
2022/09/21 04:36:18;;;;;;;0.40;0.40;;;;;;;8.23;58.93;101448.28;5065050;28;20388;-71
2022/09/21 04:38:44;;;;;;;0.40;0.40;;;;;;;8.24;58.88;101447.47;5064751;28;20473;-71
2022/09/21 04:41:10;;;;;;;0.40;0.40;;;;;;;8.22;59.13;101449.13;5064607;28;20101;-71
2022/09/21 04:43:35;;;;;;;0.40;0.40;;;;;;;8.24;59.54;101447.47;5064683;28;20050;-72
2022/09/21 04:46:05;;;;;;;0.40;0.40;;;;;;;8.31;59.93;101455.34;5064880;28;20028;-70
2022/09/21 04:48:30;;;;;;;0.40;0.40;;;;;;;8.43;60.14;101449.50;5064877;28;20028;-71
2022/09/21 04:50:56;;;;;;;0.40;0.40;;;;;;;8.54;60.31;101446.25;5064927;28;20049;-71
2022/09/21 04:53:21;;;;;;;0.50;0.50;;;;;;;8.71;60.39;101451.72;5064788;28;20389;-71
2022/09/21 04:55:47;;;;;;;0.50;0.50;;;;;;;8.83;60.45;101457.94;5065101;28;20111;-71
2022/09/21 04:58:12;;;;;;;0.40;0.40;;;;;;;8.89;60.54;101452.88;5065052;28;20085;-72
2022/09/21 05:00:37;;;;;;;0.40;0.40;;;;;;;8.89;60.65;101452.88;5064304;28;20025;-72
2022/09/21 05:03:03;;;;;;;0.40;0.40;;;;;;;8.98;60.84;101452.16;5064920;28;20021;-71
2022/09/21 05:05:28;;;;;;;0.40;0.40;;;;;;;9.14;61.16;101454.09;5064555;28;20100;-71
2022/09/21 05:07:53;;;;;;;0.40;0.40;;;;;;;9.33;61.22;101456.09;5064661;28;20465;-72
2022/09/21 05:10:19;;;;;;;0.40;0.40;;;;;;;9.52;61.09;101459.81;5066860;28;20017;-72
2022/09/21 05:12:44;;;;;;;0.40;0.40;;;;;;;9.70;61.32;101458.28;5068526;28;20025;-73
2022/09/21 05:15:10;;;;;;;0.40;0.40;;;;;;;9.89;61.38;101455.06;5067749;28;20036;-71
2022/09/21 05:17:36;;;;;;;0.40;0.40;;;;;;;10.06;61.26;101456.97;5067699;28;20017;-74
2022/09/21 05:20:02;;;;;;;0.40;0.40;;;;;;;10.25;60.89;101459.75;5067235;28;20033;-73
2022/09/21 05:22:27;;;;;;;0.40;0.40;;;;;;;10.43;60.88;101465.97;5067417;28;20365;-73
2022/09/21 05:24:53;;;;;;;0.40;0.40;;;;;;;10.61;60.61;101465.28;5067499;28;20481;-72
2022/09/21 05:27:18;;;;;;;0.40;0.40;;;;;;;10.72;60.25;101468.00;5067872;28;20059;-72
2022/09/21 05:29:44;;;;;;;0.30;0.30;;;;;;;10.62;59.58;101460.09;5067314;28;20028;-72
2022/09/21 05:32:30;;;;;;;0.40;0.40;;;;;;;10.44;59.71;101467.72;5065895;28;20071;-73
2022/09/21 05:35:23;;;;;;;0.40;0.40;;;;;;;10.18;59.84;101471.78;5055619;28;20412;-73
2022/09/21 05:38:03;;;;;;;0.40;0.40;;;;;;;9.95;60.07;101466.34;5065829;28;20044;-72
2022/09/21 05:40:28;;;;;;;0.43;0.43;;;;;;;9.77;60.59;101473.94;5065579;28;20083;-72
2022/09/21 05:42:54;;;;;;;0.40;0.40;;;;;;;9.74;61.20;101470.44;5067291;28;20024;-72
2022/09/21 05:45:21;;;;;;;0.40;0.40;;;;;;;9.85;61.65;101470.56;5067141;28;20021;-70
2022/09/21 05:48:10;;;;;;;0.40;0.40;;;;;;;10.26;62.39;101474.47;5065925;28;20021;-72
2022/09/21 05:50:50;;;;;;;0.40;0.40;;;;;;;10.63;61.52;101472.25;5067200;28;20488;-72
2022/09/21 05:53:37;;;;;;;0.40;0.40;;;;;;;10.88;61.07;101466.38;5066740;28;20065;-69
2022/09/21 05:56:12;;;;;;;0.40;0.40;;;;;;;11.17;60.74;101483.88;5066223;28;20017;-73
2022/09/21 05:58:44;;;;;;;0.40;0.40;;;;;;;11.46;60.44;101479.72;5065789;28;20411;-75
2022/09/21 06:01:35;;;;;;;0.50;0.50;;;;;;;11.95;60.55;101473.00;5065654;28;20040;-73
2022/09/21 06:04:02;;;;;;;0.30;0.30;;;;;;;12.49;60.20;101472.25;5065915;28;20021;-73
2022/09/21 06:06:27;;;;;;;0.30;0.30;;;;;;;13.04;59.86;101475.69;5065165;28;20032;-73
2022/09/21 06:08:52;;;;;;;2.15;1.63;;;;;;;13.54;58.96;101473.00;5066705;28;20025;-74
2022/09/21 06:11:18;;;;;;;0.30;0.30;;;;;;;14.00;58.40;101473.66;5066849;28;20244;-74
2022/09/21 06:13:44;;;;;;;0.30;0.30;;;;;;;14.52;58.88;101470.72;5065170;28;20044;-74
2022/09/21 06:16:09;;;;;;;0.30;0.30;;;;;;;15.15;58.48;101471.03;5072178;23;20076;-70
2022/09/21 06:18:39;;;;;;;0.30;0.30;;;;;;;15.76;58.18;101463.34;5065130;28;20029;-69
2022/09/21 06:21:08;;;;;;;0.30;0.30;;;;;;;16.26;56.76;101478.41;5065798;28;20036;-69
2022/09/21 06:23:34;;;;;;;0.30;0.30;;;;;;;16.75;54.47;101475.88;5065874;28;20054;-69
2022/09/21 06:25:59;;;;;;;0.20;0.20;;;;;;;17.27;53.87;101473.22;5064754;28;20021;-69
2022/09/21 06:28:26;;;;;;;0.20;0.20;;;;;;;17.86;53.66;101468.50;5064370;28;20021;-69
2022/09/21 06:30:53;;;;;;;0.20;0.20;;;;;;;18.42;53.41;101469.88;5064402;28;20086;-69
2022/09/21 06:33:20;;;;;;;0.30;0.30;;;;;;;18.64;52.32;101471.13;5066024;28;20029;-71
2022/09/21 06:35:57;;;;;;;0.30;0.30;;;;;;;18.85;50.96;101472.31;5064279;28;20025;-69
2022/09/21 06:38:23;;;;;;;0.20;0.20;;;;;;;18.87;49.86;101472.28;5065949;28;20060;-70
2022/09/21 06:40:50;;;;;;;0.30;0.30;;;;;;;18.90;49.37;101470.44;5065796;28;20017;-69
2022/09/21 06:43:15;;;;;;;0.40;0.40;;;;;;;19.03;48.97;101481.50;5065733;28;20028;-70
2022/09/21 06:45:41;;;;;;;0.30;0.30;;;;;;;19.31;48.91;101472.88;5065693;28;20024;-71
2022/09/21 06:48:06;;;;;;;0.20;0.20;;;;;;;19.70;49.25;101473.53;5065988;28;20116;-69
2022/09/21 06:50:32;;;;;;;0.30;0.30;;;;;;;20.05;47.86;101478.66;5065599;28;20531;-70
2022/09/21 06:53:01;;;;;;;0.40;0.40;;;;;;;20.76;47.81;101485.19;5064048;28;20463;-70
2022/09/21 06:55:28;;;;;;;0.20;0.20;;;;;;;21.29;47.57;101475.44;5065708;28;20029;-70
2022/09/21 06:58:00;;;;;;;0.20;0.20;;;;;;;21.62;46.58;101480.38;5065793;28;20024;-70
2022/09/21 07:00:25;;;;;;;0.20;0.20;;;;;;;21.97;44.89;101476.44;5065595;28;20059;-71
2022/09/21 07:02:50;;;;;;;0.73;0.73;;;;;;;22.25;44.15;101483.28;5065833;28;20057;-70
2022/09/21 07:05:16;;;;;;;0.73;0.73;;;;;;;22.64;42.52;101487.88;5065297;28;20021;-70
2022/09/21 07:07:41;;;;;;;0.20;0.20;;;;;;;22.98;42.13;101480.25;5065577;28;20047;-71
2022/09/21 07:10:07;;;;;;;0.20;0.20;;;;;;;23.24;40.85;101483.50;5064210;28;20027;-71
2022/09/21 07:12:34;;;;;;;0.10;0.10;;;;;;;23.42;38.70;101475.69;5065747;28;20029;-70
2022/09/21 07:15:00;;;;;;;0.20;0.20;;;;;;;23.38;38.42;101485.59;5065056;28;20505;-71
2022/09/21 07:17:35;;;;;;;0.20;0.20;;;;;;;23.33;37.86;101470.78;5064145;28;20027;-70
2022/09/21 07:20:01;;;;;;;0.20;0.20;;;;;;;23.43;37.89;101476.56;5064148;28;20083;-71
2022/09/21 07:22:33;;;;;;;0.10;0.10;;;;;;;23.67;36.35;101479.88;5065447;28;20025;-71
2022/09/21 07:24:58;;;;;;;0.20;0.20;;;;;;;23.80;37.51;101484.59;5064027;28;20021;-71
2022/09/21 07:27:25;;;;;;;0.10;0.10;;;;;;;23.94;37.51;101487.44;5064424;28;20025;-72
2022/09/21 07:29:51;;;;;;;0.20;0.20;;;;;;;24.06;37.43;101479.84;5064164;28;20036;-71
2022/09/21 07:32:16;;;;;;;0.10;0.10;;;;;;;24.08;36.13;101480.59;5063857;28;20021;-71
2022/09/21 07:34:42;;;;;;;0.20;0.20;;;;;;;23.96;36.96;101477.59;5065015;28;20359;-71
2022/09/21 07:37:08;;;;;;;0.20;0.20;;;;;;;23.91;36.80;101479.63;5065037;28;20021;-73
2022/09/21 07:39:34;;;;;;;0.10;0.10;;;;;;;23.80;37.32;101482.81;5065301;28;20083;-72
2022/09/21 07:42:00;;;;;;;0.17;0.17;;;;;;;23.67;37.02;101487.81;5064950;28;20017;-71
2022/09/21 07:44:25;;;;;;;0.10;0.10;;;;;;;23.45;37.01;101483.50;5063519;28;20032;-72
2022/09/21 07:46:51;;;;;;;5.10;2.25;;;;;;;23.40;37.88;101490.81;5064719;28;20028;-68
2022/09/21 07:49:16;;;;;;;0.20;0.20;;;;;;;23.19;38.28;101493.47;5064959;28;20090;-70
2022/09/21 07:51:41;;;;;;;0.20;0.20;;;;;;;23.14;38.90;101500.75;5065178;28;20017;-68
2022/09/21 07:54:11;;;;;;;0.20;0.20;;;;;;;22.90;39.04;101498.25;5064895;28;20174;-69
2022/09/21 07:56:36;;;;;;;0.20;0.20;;;;;;;22.77;39.08;101500.56;5064995;28;20035;-69
2022/09/21 07:59:06;;;;;;;0.20;0.20;;;;;;;22.77;38.80;101493.50;5065314;28;20021;-69
2022/09/21 08:01:40;;;;;;;0.20;0.20;;;;;;;22.46;38.86;101501.84;5064495;28;20407;-69
2022/09/21 08:04:08;;;;;;;0.10;0.10;;;;;;;22.28;39.24;101499.03;5064429;28;20036;-69
2022/09/21 08:06:35;;;;;;;0.20;0.20;;;;;;;22.29;39.47;101492.81;5064845;28;20024;-69
2022/09/21 08:09:02;;;;;;;0.20;0.20;;;;;;;22.20;39.52;101496.69;5064835;28;20526;-69
2022/09/21 08:11:30;;;;;;;0.20;0.20;;;;;;;22.06;39.71;101488.44;5064635;28;20099;-70
2022/09/21 08:13:58;;;;;;;0.20;0.20;;;;;;;21.99;39.79;101486.06;5064291;28;20021;-69
2022/09/21 08:16:24;;;;;;;0.20;0.20;;;;;;;21.88;40.31;101480.31;5064343;28;20068;-69
2022/09/21 08:18:50;;;;;;;0.20;0.20;;;;;;;21.93;40.29;101483.66;5064625;28;20025;-69
2022/09/21 08:21:16;;;;;;;0.20;0.20;;;;;;;22.09;40.96;101489.19;5064581;28;20081;-70
2022/09/21 08:23:42;;;;;;;0.20;0.20;;;;;;;22.53;40.51;101493.59;5079833;28;20021;-70
2022/09/21 08:26:17;;;;;;;0.45;0.45;;;;;;;22.88;39.83;101486.88;5064130;28;20048;-70
2022/09/21 08:28:50;;;;;;;0.20;0.20;;;;;;;22.95;39.22;101496.28;5064533;28;20025;-70
2022/09/21 08:31:18;;;;;;;0.20;0.20;;;;;;;23.07;39.49;101489.56;5064448;28;20031;-70
2022/09/21 08:33:44;;;;;;;0.20;0.20;;;;;;;23.14;39.25;101490.16;5061816;28;20079;-70
2022/09/21 08:36:09;;;;;;;0.20;0.20;;;;;;;23.19;38.96;101490.84;5063945;28;20024;-69
2022/09/21 08:38:37;;;;;;;0.20;0.20;;;;;;;23.23;38.64;101502.13;5064307;28;20029;-69
2022/09/21 08:41:13;;;;;;;0.10;0.10;;;;;;;23.18;38.98;101496.19;5064189;28;20029;-69
2022/09/21 08:43:44;;;;;;;0.20;0.20;;;;;;;23.57;38.63;101492.69;5066727;28;20109;-69
2022/09/21 08:46:16;;;;;;;0.20;0.20;;;;;;;23.92;38.21;101485.78;5070791;28;20052;-69
2022/09/21 08:48:55;;;;;;;0.20;0.20;;;;;;;24.34;37.63;101491.75;5071080;28;20020;-69
2022/09/21 08:51:25;;;;;;;0.20;0.20;;;;;;;24.75;37.26;101485.28;5070958;28;20036;-69
2022/09/21 08:53:55;;;;;;;0.10;0.10;;;;;;;24.96;36.48;101478.03;5071193;28;20124;-69
2022/09/21 08:56:25;;;;;;;0.20;0.20;;;;;;;23.95;36.59;101488.28;5051047;28;20021;-69
2022/09/21 08:58:50;;;;;;;0.35;0.35;;;;;;;23.19;37.55;101492.59;5070704;28;20078;-69
2022/09/21 09:01:26;;;;;;;0.20;0.20;;;;;;;22.86;38.90;101492.22;5070521;28;20025;-69
2022/09/21 09:04:25;;;;;;;0.20;0.20;;;;;;;23.73;38.54;101487.53;5070944;28;20025;-69
2022/09/21 09:07:20;;;;;;;0.20;0.20;;;;;;;24.44;37.52;101495.66;5069435;28;20036;-69
2022/09/21 09:10:16;;;;;;;0.20;0.20;;;;;;;25.43;35.92;101486.19;5070497;28;20039;-70
2022/09/21 09:12:53;;;;;;;0.10;0.10;;;;;;;25.92;34.13;101487.09;5069553;28;20017;-70
2022/09/21 09:15:46;;;;;;;0.60;0.43;;;;;;;25.31;34.28;101493.03;5070614;28;20044;-69
2022/09/21 09:18:40;;;;;;;0.20;0.20;;;;;;;24.94;35.98;101494.97;5070567;28;20079;-70
2022/09/21 09:21:15;;;;;;;0.10;0.10;;;;;;;25.14;35.78;101496.59;5070536;28;20025;-70
2022/09/21 09:23:45;;;;;;;0.20;0.20;;;;;;;24.85;35.67;101489.19;5070566;28;20017;-69
2022/09/21 09:26:19;;;;;;;0.15;0.15;;;;;;;25.43;35.51;101494.16;5070571;28;20420;-69
2022/09/21 09:28:51;;;;;;;0.20;0.20;;;;;;;26.18;33.91;101494.53;5070463;28;20027;-70
2022/09/21 09:31:16;;;;;;;;;;;;;;;27.12;32.41;101497.06;5070956;28;20025;-70
2022/09/21 09:34:00;;;;;;;0.30;0.30;;;;;;;27.29;31.86;101496.03;5070322;28;19968;-70
2022/09/21 09:36:34;;;;;;;0.10;0.10;;;;;;;26.82;32.84;101497.00;5070147;28;20044;-69
2022/09/21 09:39:11;;;;;;;0.10;0.10;;;;;;;27.47;32.60;101497.56;5070501;28;20087;-70
2022/09/21 09:42:04;;;;;;;0.10;0.10;;;;;;;27.64;32.91;101498.28;5070250;28;20035;-69
2022/09/21 09:44:54;;;;;;;0.10;0.10;;;;;;;27.70;31.53;101497.91;5070350;28;20025;-69
2022/09/21 09:47:47;;;;;;;0.10;0.10;;;;;;;28.16;30.78;101493.19;5070046;28;20025;-69
2022/09/21 09:50:29;;;;;;;0.10;0.10;;;;;;;28.28;29.26;101496.84;5068922;28;20272;-69
2022/09/21 09:53:09;;;;;;;0.10;0.10;;;;;;;28.26;29.37;101495.25;5069253;28;20025;-69
2022/09/21 09:55:42;;;;;;;0.17;0.17;;;;;;;28.27;28.08;101494.28;5066438;28;20021;-70
2022/09/21 09:58:21;;;;;;;0.10;0.10;;;;;;;28.24;27.31;101494.50;5066556;28;20036;-69
2022/09/21 10:00:51;;;;;;;0.10;0.10;;;;;;;27.98;27.76;101486.38;5063679;28;20032;-69
2022/09/21 10:03:24;;;;;;;0.10;0.10;;;;;;;27.56;28.39;101501.44;5062049;28;20021;-69
2022/09/21 10:05:50;;;;;;;0.10;0.10;;;;;;;27.51;28.80;101503.53;5062127;28;20017;-70
2022/09/21 10:08:43;;;;;;;0.10;0.10;;;;;;;27.69;28.38;101496.19;5062243;28;20013;-70
2022/09/21 10:11:14;;;;;;;0.10;0.10;;;;;;;27.86;28.47;101496.91;5062444;28;20286;-69
2022/09/21 10:13:45;;;;;;;0.77;0.77;;;;;;;28.17;28.17;101496.69;5062716;28;20028;-69
2022/09/21 10:16:12;;;;;;;0.10;0.10;;;;;;;28.39;28.14;101493.47;5063107;28;20041;-70
2022/09/21 10:18:48;;;;;;;0.10;0.10;;;;;;;28.15;28.03;101490.63;5066939;28;20029;-70
2022/09/21 10:21:26;;;;;;;0.13;0.13;;;;;;;27.20;28.98;101503.66;5065305;28;20021;-71
2022/09/21 10:24:03;;;;;;;1.85;1.75;;;;;;;26.54;30.05;101503.13;5065491;28;20017;-70
2022/09/21 10:26:46;;;;;;;0.10;0.10;;;;;;;26.81;30.37;101499.78;5066405;28;20028;-70
2022/09/21 10:29:26;;;;;;;0.10;0.10;;;;;;;26.88;30.08;101494.94;5066337;28;20108;-69
2022/09/21 10:32:18;;;;;;;0.10;0.10;;;;;;;25.31;30.62;101501.00;5066203;28;20051;-70
2022/09/21 10:35:06;;;;;;;0.20;0.20;;;;;;;24.00;32.60;101492.44;5064450;28;20028;-69
2022/09/21 10:37:34;;;;;;;0.30;0.30;;;;;;;22.87;34.74;101501.03;5065143;28;20059;-70
2022/09/21 10:40:00;;;;;;;0.20;0.20;;;;;;;22.85;34.79;101497.59;5066336;28;20182;-70
2022/09/21 10:42:34;;;;;;;0.20;0.20;;;;;;;23.31;34.68;101502.66;5066337;28;20032;-69
2022/09/21 10:45:05;;;;;;;0.20;0.20;;;;;;;23.35;34.41;101500.72;5066178;28;20441;-69
2022/09/21 10:47:45;;;;;;;0.20;0.20;;;;;;;23.20;34.54;101500.47;5065931;28;20025;-69
2022/09/21 10:50:40;;;;;;;0.20;0.20;;;;;;;23.31;34.74;101496.50;5066210;28;20029;-69
2022/09/21 10:53:08;;;;;;;0.20;0.20;;;;;;;23.21;34.55;101496.91;5066016;28;20033;-70
2022/09/21 10:55:57;;;;;;;0.20;0.20;;;;;;;23.01;34.37;101489.84;5064484;28;20477;-69
2022/09/21 10:58:22;;;;;;;0.20;0.20;;;;;;;23.16;35.23;101493.63;5064596;28;20070;-69
2022/09/21 11:00:50;;;;;;;0.20;0.20;;;;;;;23.84;33.79;101492.31;5065893;28;20056;-69
2022/09/21 11:03:34;;;;;;;0.20;0.20;;;;;;;23.18;33.64;101491.75;5065922;28;20021;-69
2022/09/21 11:06:10;;;;;;;0.20;0.20;;;;;;;22.05;34.94;101484.94;5064235;28;20029;-69
2022/09/21 11:08:57;;;;;;;0.20;0.20;;;;;;;21.03;38.23;101501.00;5065018;28;20052;-69
2022/09/21 11:11:34;;;;;;;0.20;0.20;;;;;;;21.75;37.21;101491.34;5064591;28;20169;-69
2022/09/21 11:14:14;;;;;;;0.20;0.20;;;;;;;21.62;37.47;101500.66;5066009;28;20048;-70
2022/09/21 11:16:45;;;;;;;0.20;0.20;;;;;;;21.26;37.33;101497.53;5065233;28;20048;-69
2022/09/21 11:19:26;;;;;;;0.20;0.20;;;;;;;20.38;38.67;101477.66;5064355;28;20080;-70
2022/09/21 11:22:03;;;;;;;0.20;0.20;;;;;;;20.33;40.23;101500.66;5065207;28;20033;-68
2022/09/21 11:24:45;;;;;;;0.20;0.20;;;;;;;21.40;39.09;101493.53;5063755;28;20044;-69
2022/09/21 11:27:18;;;;;;;0.20;0.20;;;;;;;22.23;38.18;101493.06;5064844;28;20049;-68
2022/09/21 11:30:06;;;;;;;0.20;0.20;;;;;;;23.26;35.71;101505.50;5064424;28;20040;-68
2022/09/21 11:32:31;;;;;;;0.20;0.20;;;;;;;22.95;36.00;101506.00;5063374;28;20024;-68
2022/09/21 11:35:08;;;;;;;0.20;0.20;;;;;;;21.97;36.21;101498.47;5065178;28;20511;-68
2022/09/21 11:37:49;;;;;;;0.20;0.20;;;;;;;20.95;38.21;101503.91;5065344;28;20025;-68
2022/09/21 11:40:29;;;;;;;0.20;0.20;;;;;;;20.03;39.42;101504.22;5065001;28;20029;-67
2022/09/21 11:43:14;;;;;;;0.20;0.20;;;;;;;19.17;41.61;101514.53;5063928;28;20044;-68
2022/09/21 11:45:48;;;;;;;0.20;0.20;;;;;;;18.71;41.58;101512.13;5065009;28;20063;-67
2022/09/21 11:48:42;;;;;;;0.28;0.28;;;;;;;18.40;42.42;101505.84;5064942;28;20037;-68
2022/09/21 11:51:22;;;;;;;0.20;0.20;;;;;;;18.07;43.95;101496.06;5062500;28;20048;-68